createdAt,value
2022-07-27T00:02:35.851Z,1.17
2022-07-27T00:07:39.525Z,1.10
2022-07-27T00:12:44.836Z,1.10
2022-07-27T00:17:48.428Z,0.98
2022-07-27T00:22:52.082Z,1.30
2022-07-27T00:27:57.854Z,1.10
2022-07-27T00:33:01.508Z,1.10
2022-07-27T00:38:05.188Z,1.15
2022-07-27T00:43:10.366Z,1.17
2022-07-27T00:48:14.180Z,1.20
2022-07-27T00:53:18.004Z,1.20
2022-07-27T00:58:23.669Z,1.10
2022-07-27T01:03:29.815Z,0.90
2022-07-27T01:08:33.975Z,1.07
2022-07-27T01:13:39.452Z,0.90
2022-07-27T01:18:43.410Z,1.10
2022-07-27T01:23:48.399Z,0.85
2022-07-27T01:28:57.118Z,1.08
2022-07-27T01:34:01.521Z,0.93
2022-07-27T01:39:06.725Z,1.00
2022-07-27T01:44:10.971Z,0.93
2022-07-27T01:49:15.168Z,0.80
2022-07-27T01:54:20.539Z,0.80
2022-07-27T01:59:24.001Z,0.93
2022-07-27T02:04:27.553Z,1.00
2022-07-27T02:09:32.721Z,0.85
2022-07-27T02:14:36.363Z,0.90
2022-07-27T02:19:40.035Z,0.82
2022-07-27T02:24:45.186Z,0.90
2022-07-27T02:29:48.797Z,0.93
2022-07-27T02:34:52.851Z,0.80
2022-07-27T02:39:57.674Z,0.90
2022-07-27T02:45:01.339Z,1.02
2022-07-27T02:50:06.961Z,0.80
2022-07-27T02:55:12.294Z,0.95
2022-07-27T03:00:17.926Z,0.88
2022-07-27T03:05:21.545Z,0.80
2022-07-27T03:10:26.607Z,1.00
2022-07-27T03:15:30.730Z,0.80
2022-07-27T03:20:34.603Z,0.80
2022-07-27T03:25:39.618Z,0.90
2022-07-27T03:30:44.006Z,1.08
2022-07-27T03:35:47.644Z,0.80
2022-07-27T03:40:52.844Z,0.70
2022-07-27T03:45:56.645Z,1.00
2022-07-27T03:51:00.379Z,0.68
2022-07-27T03:56:06.443Z,0.85
2022-07-27T04:01:10.216Z,0.73
2022-07-27T04:06:13.852Z,0.93
2022-07-27T04:11:18.947Z,0.70
2022-07-27T04:16:22.918Z,1.00
2022-07-27T04:21:27.775Z,0.70
2022-07-27T04:26:38.716Z,0.90
2022-07-27T04:31:42.523Z,0.85
2022-07-27T04:36:46.020Z,0.90
2022-07-27T04:41:51.727Z,0.70
2022-07-27T04:46:55.415Z,0.80
2022-07-27T04:51:59.057Z,0.80
2022-07-27T04:57:03.953Z,0.80
2022-07-27T05:02:08.398Z,0.82
2022-07-27T05:07:12.155Z,0.73
2022-07-27T05:12:17.247Z,0.80
2022-07-27T05:17:20.984Z,0.70
2022-07-27T05:22:24.766Z,0.70
2022-07-27T05:27:29.977Z,0.80
2022-07-27T05:32:33.713Z,0.82
2022-07-27T05:37:37.461Z,0.70
2022-07-27T05:42:44.960Z,0.70
2022-07-27T05:47:48.594Z,0.60
2022-07-27T05:52:52.614Z,0.60
2022-07-27T05:57:57.682Z,0.60
2022-07-27T06:03:01.400Z,0.60
2022-07-27T06:08:08.890Z,0.70
2022-07-27T06:13:14.049Z,0.60
2022-07-27T06:18:18.572Z,0.65
2022-07-27T06:23:23.393Z,0.70
2022-07-27T06:28:28.551Z,0.88
2022-07-27T06:33:32.329Z,0.68
2022-07-27T06:38:36.320Z,0.70
2022-07-27T06:43:41.542Z,0.80
2022-07-27T06:48:46.616Z,0.70
2022-07-27T06:53:53.273Z,0.80
2022-07-27T06:58:58.320Z,0.80
2022-07-27T07:04:01.880Z,0.70
2022-07-27T07:09:06.230Z,0.70
2022-07-27T07:19:17.641Z,0.73
2022-07-27T07:24:21.317Z,0.80
2022-07-27T07:29:26.337Z,0.75
2022-07-27T07:34:30.497Z,0.70
2022-07-27T07:39:34.140Z,0.80
2022-07-27T07:44:39.691Z,0.73
2022-07-27T07:49:43.299Z,0.73
2022-07-27T07:54:46.881Z,0.70
2022-07-27T07:59:51.812Z,0.90
2022-07-27T08:04:55.638Z,1.10
2022-07-27T08:09:59.419Z,1.10
2022-07-27T08:15:05.228Z,1.30
2022-07-27T08:20:11.294Z,1.23
2022-07-27T08:25:15.067Z,1.20
2022-07-27T08:30:20.198Z,1.60
2022-07-27T08:35:24.494Z,1.30
2022-07-27T08:40:39.705Z,1.25
2022-07-27T08:50:51.467Z,1.00
2022-07-27T08:55:57.609Z,1.05
2022-07-27T09:01:02.563Z,1.10
2022-07-27T09:06:06.330Z,1.10
2022-07-27T09:11:19.963Z,1.35
2022-07-27T09:16:58.123Z,1.20
2022-07-27T09:21:56.000Z,1.60
2022-07-27T09:27:06.048Z,1.65
2022-07-27T09:32:17.868Z,1.77
2022-07-27T09:37:27.230Z,2.10
2022-07-27T09:43:06.773Z,2.17
2022-07-27T09:47:58.445Z,6.13
2022-07-27T09:53:41.221Z,16.15
2022-07-27T09:58:49.675Z,26.85
2022-07-27T10:03:58.706Z,32.55
2022-07-27T10:09:03.181Z,38.05
2022-07-27T10:14:07.586Z,39.50
2022-07-27T10:19:19.453Z,37.83
2022-07-27T10:24:31.554Z,30.40
2022-07-27T10:29:35.183Z,25.75
2022-07-27T10:34:43.988Z,24.10
2022-07-27T10:40:13.783Z,19.63
2022-07-27T10:45:19.840Z,17.10
2022-07-27T10:50:34.029Z,13.00
2022-07-27T10:55:52.303Z,11.20
2022-07-27T11:01:04.344Z,9.20
2022-07-27T11:11:40.184Z,6.00
2022-07-27T11:16:54.933Z,4.78
2022-07-27T11:22:04.695Z,4.05
2022-07-27T11:27:16.338Z,3.60
2022-07-27T11:32:21.560Z,3.20
2022-07-27T11:37:26.504Z,2.90
2022-07-27T11:42:39.313Z,2.45
2022-07-27T11:47:42.960Z,2.05
2022-07-27T11:53:01.617Z,1.73
2022-07-27T11:58:06.023Z,1.70
2022-07-27T12:03:21.295Z,1.60
2022-07-27T12:08:27.437Z,1.50
2022-07-27T12:13:34.711Z,1.60
2022-07-27T12:23:55.660Z,1.10
